createdAt,value
2019-05-23T00:01:11.723Z,20.40
2019-05-23T00:03:48.260Z,20.40
2019-05-23T00:06:26.851Z,19.63
2019-05-23T00:08:57.478Z,19.20
2019-05-23T00:11:53.889Z,18.37
2019-05-23T00:14:43.315Z,18.50
2019-05-23T00:17:26.745Z,19.40
2019-05-23T00:19:57.098Z,18.70
2019-05-23T00:22:27.397Z,18.13
2019-05-23T00:25:04.259Z,18.23
2019-05-23T00:27:36.850Z,18.90
2019-05-23T00:30:15.987Z,20.20
2019-05-23T00:32:47.383Z,19.47
2019-05-23T00:35:25.838Z,19.60
2019-05-23T00:37:55.630Z,20.88
2019-05-23T00:40:33.243Z,20.20
2019-05-23T00:43:03.578Z,20.52
2019-05-23T00:45:39.624Z,21.00
2019-05-23T00:48:15.659Z,21.00
2019-05-23T00:50:52.350Z,19.20
2019-05-23T00:53:22.258Z,20.65
2019-05-23T00:55:52.097Z,20.77
2019-05-23T00:58:27.822Z,21.33
2019-05-23T01:00:59.601Z,21.03
2019-05-23T01:03:38.216Z,20.90
2019-05-23T01:06:07.629Z,21.30
2019-05-23T01:08:45.069Z,20.15
2019-05-23T01:11:16.281Z,20.00
2019-05-23T01:13:52.689Z,21.20
2019-05-23T01:16:29.770Z,19.85
2019-05-23T01:19:06.294Z,20.30
2019-05-23T01:22:06.652Z,20.83
2019-05-23T01:24:44.651Z,19.73
2019-05-23T01:27:14.866Z,20.90
2019-05-23T01:29:52.174Z,21.52
2019-05-23T01:32:45.046Z,21.25
2019-05-23T01:35:19.202Z,20.77
2019-05-23T01:37:55.240Z,20.92
2019-05-23T01:40:24.655Z,20.05
2019-05-23T01:43:00.226Z,20.35
2019-05-23T01:45:29.737Z,19.50
2019-05-23T01:48:12.343Z,20.17
2019-05-23T01:50:41.663Z,22.20
2019-05-23T01:53:17.938Z,20.57
2019-05-23T01:55:47.653Z,20.70
2019-05-23T01:58:16.975Z,19.70
2019-05-23T02:00:53.524Z,20.55
2019-05-23T02:03:23.111Z,21.05
2019-05-23T02:05:59.532Z,21.65
2019-05-23T02:08:29.214Z,23.05
2019-05-23T02:11:05.523Z,20.40
2019-05-23T02:13:35.123Z,21.27
2019-05-23T02:16:18.892Z,21.40
2019-05-23T02:18:49.080Z,21.70
2019-05-23T02:21:26.024Z,21.95
2019-05-23T02:23:55.787Z,22.10
2019-05-23T02:26:32.212Z,22.50
2019-05-23T02:29:03.384Z,22.00
2019-05-23T02:31:39.241Z,23.35
2019-05-23T02:34:08.537Z,21.40
2019-05-23T02:36:45.003Z,21.85
2019-05-23T02:39:40.716Z,21.15
2019-05-23T02:42:31.722Z,21.17
2019-05-23T02:45:10.913Z,20.17
2019-05-23T02:47:52.118Z,22.50
2019-05-23T02:50:34.951Z,22.55
2019-05-23T02:53:12.158Z,22.48
2019-05-23T02:55:42.309Z,22.58
2019-05-23T02:58:34.956Z,22.98
2019-05-23T03:01:48.926Z,23.75
2019-05-23T03:04:24.950Z,21.95
2019-05-23T03:07:02.968Z,23.45
2019-05-23T03:09:35.865Z,22.40
2019-05-23T03:12:14.180Z,22.22
2019-05-23T03:14:51.367Z,22.75
2019-05-23T03:17:35.195Z,23.75
2019-05-23T03:20:08.038Z,22.65
2019-05-23T03:22:55.202Z,21.93
2019-05-23T03:26:10.511Z,21.35
2019-05-23T03:28:48.834Z,21.80
2019-05-23T03:31:41.860Z,22.90
2019-05-23T03:34:19.613Z,23.80
2019-05-23T03:36:48.883Z,22.80
2019-05-23T03:39:24.999Z,22.93
2019-05-23T03:41:54.209Z,22.30
2019-05-23T03:44:31.759Z,23.07
2019-05-23T03:47:09.674Z,23.35
2019-05-23T03:49:46.071Z,22.70
2019-05-23T03:52:16.798Z,25.17
2019-05-23T03:54:49.107Z,23.60
2019-05-23T03:57:27.846Z,23.10
2019-05-23T04:00:05.438Z,23.60
2019-05-23T04:02:36.419Z,24.35
2019-05-23T04:05:14.144Z,23.90
2019-05-23T04:07:43.551Z,24.60
2019-05-23T04:10:20.747Z,23.38
2019-05-23T04:12:50.127Z,22.22
2019-05-23T04:15:27.169Z,23.77
2019-05-23T04:18:03.402Z,21.55
2019-05-23T04:20:39.579Z,21.75
2019-05-23T04:23:09.513Z,21.65
2019-05-23T04:25:45.557Z,22.42
2019-05-23T04:28:14.699Z,22.27
2019-05-23T04:30:44.493Z,24.32
2019-05-23T04:33:20.770Z,22.27
2019-05-23T04:35:49.905Z,22.40
2019-05-23T04:38:25.674Z,22.20
2019-05-23T04:40:54.940Z,20.48
2019-05-23T04:43:34.295Z,21.63
2019-05-23T04:46:10.526Z,21.17
2019-05-23T04:48:46.681Z,21.00
2019-05-23T04:51:16.050Z,21.50
2019-05-23T04:53:52.381Z,20.73
2019-05-23T04:56:21.667Z,19.67
2019-05-23T04:58:52.386Z,19.57
2019-05-23T05:01:29.554Z,19.97
2019-05-23T05:03:59.069Z,20.93
2019-05-23T05:06:35.452Z,19.70
2019-05-23T05:09:08.632Z,20.07
2019-05-23T05:11:44.101Z,20.80
2019-05-23T05:14:13.881Z,19.77
2019-05-23T05:16:52.024Z,20.20
2019-05-23T05:19:29.585Z,19.20
2019-05-23T05:22:05.079Z,19.00
2019-05-23T05:24:40.126Z,19.00
2019-05-23T05:27:14.314Z,21.20
2019-05-23T05:29:46.358Z,19.47
2019-05-23T05:32:23.990Z,20.10
2019-05-23T05:34:55.523Z,19.40
2019-05-23T05:37:31.974Z,19.10
2019-05-23T05:40:01.708Z,19.20
2019-05-23T05:42:37.387Z,19.00
2019-05-23T05:48:45.160Z,18.37
2019-05-23T05:51:14.563Z,18.33
2019-05-23T05:53:54.549Z,17.57
2019-05-23T05:56:28.204Z,18.40
2019-05-23T05:59:04.258Z,19.27
2019-05-23T06:01:34.692Z,19.00
2019-05-23T06:04:11.457Z,18.33
2019-05-23T06:06:50.304Z,18.50
2019-05-23T06:09:30.710Z,17.40
2019-05-23T06:12:00.134Z,19.03
2019-05-23T06:14:36.120Z,17.27
2019-05-23T06:17:15.221Z,17.97
2019-05-23T06:19:56.918Z,18.80
2019-05-23T06:22:28.310Z,17.73
2019-05-23T06:25:04.629Z,18.17
2019-05-23T06:27:35.495Z,17.33
2019-05-23T06:30:13.762Z,17.80
2019-05-23T06:32:43.156Z,18.07
2019-05-23T06:35:13.630Z,19.40
2019-05-23T06:37:49.931Z,18.47
2019-05-23T06:40:20.033Z,18.57
2019-05-23T06:42:55.522Z,18.70
2019-05-23T06:45:25.340Z,18.37
2019-05-23T06:48:07.741Z,17.70
2019-05-23T06:50:37.006Z,18.20
2019-05-23T06:53:13.998Z,17.53
2019-05-23T06:55:43.187Z,17.83
2019-05-23T06:58:49.182Z,16.90
2019-05-23T07:01:19.039Z,16.17
2019-05-23T07:07:58.372Z,16.10
2019-05-23T07:28:53.374Z,18.30
2019-05-23T07:37:52.734Z,24.40
2019-05-23T07:43:04.132Z,16.50
2019-05-23T07:55:55.249Z,20.80
2019-05-23T07:58:31.768Z,18.47
2019-05-23T08:01:10.112Z,18.73
2019-05-23T08:03:40.231Z,19.17
2019-05-23T08:06:10.125Z,17.17
2019-05-23T08:08:46.482Z,18.60
2019-05-23T08:11:15.694Z,18.07
2019-05-23T08:13:52.011Z,19.13
2019-05-23T08:16:21.307Z,19.63
2019-05-23T08:18:50.424Z,19.47
2019-05-23T08:21:26.944Z,19.60
2019-05-23T08:23:56.176Z,18.70
2019-05-23T08:26:33.572Z,17.90
2019-05-23T08:29:24.775Z,17.33
2019-05-23T08:31:41.472Z,18.67
2019-05-23T08:34:11.194Z,18.53
2019-05-23T08:36:40.337Z,18.30
2019-05-23T08:39:16.955Z,19.37
2019-05-23T08:41:46.204Z,17.43
2019-05-23T08:44:23.114Z,17.80
2019-05-23T08:46:58.602Z,18.50
2019-05-23T08:49:34.919Z,19.23
2019-05-23T08:52:04.257Z,18.10
2019-05-23T08:54:48.163Z,19.53
2019-05-23T08:57:17.643Z,19.83
2019-05-23T08:59:53.978Z,20.50
2019-05-23T09:02:23.494Z,18.70
2019-05-23T09:05:04.160Z,20.80
2019-05-23T09:07:30.049Z,20.57
2019-05-23T09:09:59.505Z,21.07
2019-05-23T09:12:35.339Z,19.10
2019-05-23T09:15:09.593Z,18.10
2019-05-23T09:17:53.057Z,16.77
2019-05-23T09:20:15.279Z,18.87
2019-05-23T09:22:50.924Z,18.47
2019-05-23T09:25:20.662Z,19.97
2019-05-23T09:27:58.041Z,17.67
2019-05-23T09:30:27.642Z,18.00
2019-05-23T09:32:56.859Z,16.67
2019-05-23T09:35:33.394Z,17.40
2019-05-23T09:38:02.551Z,18.47
2019-05-23T09:40:38.782Z,17.17
2019-05-23T09:43:08.380Z,16.10
2019-05-23T09:45:44.681Z,17.20
2019-05-23T09:48:20.652Z,17.80
2019-05-23T09:50:56.783Z,15.17
2019-05-23T09:53:26.380Z,16.03
2019-05-23T09:56:09.243Z,18.93
2019-05-23T09:58:38.834Z,17.30
2019-05-23T10:01:08.932Z,17.70
2019-05-23T10:03:44.986Z,18.80
2019-05-23T10:06:14.142Z,17.80
2019-05-23T10:09:05.807Z,16.70
2019-05-23T10:11:42.563Z,18.77
2019-05-23T10:14:22.853Z,17.10
2019-05-23T10:16:52.138Z,15.93
2019-05-23T10:19:21.311Z,14.53
2019-05-23T10:21:57.127Z,15.07
2019-05-23T10:24:26.469Z,18.70
2019-05-23T10:27:01.747Z,17.10
2019-05-23T10:29:31.286Z,16.70
2019-05-23T10:32:06.920Z,16.23
2019-05-23T10:34:36.358Z,17.10
2019-05-23T10:37:07.942Z,16.90
2019-05-23T10:39:45.306Z,16.50
2019-05-23T10:42:21.208Z,17.07
2019-05-23T10:44:50.336Z,14.60
2019-05-23T10:47:26.714Z,17.70
2019-05-23T10:50:07.736Z,17.73
2019-05-23T10:52:41.102Z,15.43
2019-05-23T10:55:17.014Z,15.97
2019-05-23T10:57:59.462Z,15.63
2019-05-23T11:00:30.222Z,16.70
2019-05-23T11:02:59.950Z,16.73
2019-05-23T11:05:36.716Z,15.47
2019-05-23T11:08:06.606Z,14.33
2019-05-23T11:10:43.419Z,15.30
2019-05-23T11:13:12.583Z,13.90
2019-05-23T11:15:42.245Z,15.53
2019-05-23T11:18:17.964Z,14.67
2019-05-23T11:20:47.944Z,14.60
2019-05-23T11:23:39.441Z,14.73
2019-05-23T11:26:09.362Z,16.50
2019-05-23T11:28:38.907Z,14.70
2019-05-23T11:31:18.891Z,13.27
2019-05-23T11:33:48.407Z,13.87
2019-05-23T11:36:34.905Z,14.33
2019-05-23T11:38:55.237Z,13.40
2019-05-23T11:41:24.905Z,14.83
2019-05-23T11:44:00.737Z,14.97
2019-05-23T11:46:33.498Z,14.40
2019-05-23T11:49:09.995Z,13.07
2019-05-23T11:51:46.520Z,13.60
2019-05-23T11:54:22.798Z,14.87
2019-05-23T11:57:01.084Z,14.67
2019-05-23T11:59:43.917Z,12.50
2019-05-23T12:02:38.387Z,12.70
2019-05-23T12:05:19.141Z,11.00
2019-05-23T12:07:48.502Z,10.90
2019-05-23T12:10:25.344Z,9.60
2019-05-23T12:12:54.618Z,8.07
2019-05-23T12:15:34.758Z,11.00
2019-05-23T12:18:05.700Z,9.77
2019-05-23T12:20:34.955Z,9.17
2019-05-23T12:23:29.258Z,9.50
2019-05-23T12:26:05.932Z,9.67
2019-05-23T12:28:41.482Z,9.70
2019-05-23T12:31:11.032Z,9.00
2019-05-23T12:33:40.181Z,8.10
2019-05-23T12:36:18.208Z,7.40
2019-05-23T12:38:47.427Z,7.60
2019-05-23T12:41:23.600Z,7.60
2019-05-23T12:43:52.912Z,7.97
2019-05-23T12:46:22.265Z,8.90
2019-05-23T12:49:19.674Z,9.60
2019-05-23T12:51:56.568Z,8.07
2019-05-23T12:54:32.678Z,6.70
2019-05-23T12:57:02.050Z,7.00
2019-05-23T12:59:31.387Z,6.97
2019-05-23T13:02:07.950Z,7.00
2019-05-23T13:04:37.201Z,5.53
2019-05-23T13:07:13.670Z,6.30
2019-05-23T13:09:43.374Z,5.70
2019-05-23T13:12:16.146Z,5.10
2019-05-23T13:14:53.554Z,5.30
2019-05-23T13:17:21.224Z,4.87
2019-05-23T13:19:50.478Z,4.80
2019-05-23T13:22:26.182Z,4.40
2019-05-23T13:25:02.345Z,4.30
2019-05-23T13:27:44.649Z,5.40
2019-05-23T13:30:15.508Z,5.60
2019-05-23T13:32:45.470Z,4.87
2019-05-23T13:35:21.147Z,6.73
2019-05-23T13:37:54.120Z,6.57
2019-05-23T13:40:27.998Z,5.37
2019-05-23T13:42:57.594Z,4.90
2019-05-23T13:45:27.379Z,4.00
2019-05-23T13:48:02.987Z,4.70
2019-05-23T13:50:38.846Z,3.70
2019-05-23T13:53:14.670Z,3.83
2019-05-23T13:55:43.809Z,4.40
2019-05-23T13:58:13.385Z,4.90
2019-05-23T14:00:50.635Z,3.70
2019-05-23T14:03:20.193Z,4.77
2019-05-23T14:05:55.832Z,4.40
2019-05-23T14:08:25.458Z,4.20
2019-05-23T14:10:54.858Z,4.93
2019-05-23T14:13:30.559Z,4.10
2019-05-23T14:15:59.848Z,4.40
2019-05-23T14:18:36.268Z,4.20
2019-05-23T14:21:06.411Z,4.70
2019-05-23T14:23:35.659Z,4.70
2019-05-23T14:26:13.064Z,4.10
2019-05-23T14:28:42.578Z,4.30
2019-05-23T14:31:22.349Z,4.33
2019-05-23T14:34:06.889Z,4.67
2019-05-23T14:37:10.704Z,4.77
2019-05-23T14:39:44.017Z,5.03
2019-05-23T14:42:37.844Z,4.90
2019-05-23T14:45:14.309Z,4.40
2019-05-23T14:48:11.918Z,4.03
2019-05-23T14:51:00.246Z,3.90
2019-05-23T14:53:44.188Z,5.10
2019-05-23T14:56:17.067Z,4.20
2019-05-23T14:58:53.458Z,3.70
2019-05-23T15:01:24.429Z,3.67
2019-05-23T15:04:00.678Z,5.00
2019-05-23T15:06:29.919Z,3.40
2019-05-23T15:08:59.297Z,3.90
2019-05-23T15:11:35.006Z,3.73
2019-05-23T15:14:04.890Z,3.90
2019-05-23T15:16:41.668Z,3.97
2019-05-23T15:19:10.861Z,4.20
2019-05-23T15:21:40.026Z,4.10
2019-05-23T15:24:16.196Z,4.97
2019-05-23T15:26:52.142Z,4.03
2019-05-23T15:29:29.398Z,3.63
2019-05-23T15:32:02.880Z,3.20
2019-05-23T15:34:30.140Z,3.50
2019-05-23T15:37:06.396Z,4.07
2019-05-23T15:39:35.727Z,4.70
2019-05-23T15:42:04.937Z,4.63
2019-05-23T15:44:41.239Z,4.97
2019-05-23T15:47:10.490Z,4.37
2019-05-23T15:49:41.512Z,5.33
2019-05-23T15:52:26.172Z,4.57
2019-05-23T15:55:20.062Z,4.70
2019-05-23T15:58:22.255Z,5.10
2019-05-23T16:01:12.709Z,4.50
2019-05-23T16:03:57.332Z,5.23
2019-05-23T16:06:28.542Z,4.43
2019-05-23T16:09:05.110Z,10.57
2019-05-23T16:11:34.313Z,7.97
2019-05-23T16:14:10.594Z,4.60
2019-05-23T16:16:40.384Z,4.90
2019-05-23T16:19:09.510Z,6.27
2019-05-23T16:21:46.649Z,4.00
2019-05-23T16:24:15.861Z,4.40
2019-05-23T16:26:59.518Z,3.77
2019-05-23T16:29:35.976Z,3.83
2019-05-23T16:32:12.214Z,3.63
2019-05-23T16:34:41.533Z,3.90
2019-05-23T16:37:11.373Z,4.13
2019-05-23T16:39:49.432Z,4.20
2019-05-23T16:42:19.459Z,4.47
2019-05-23T16:44:48.680Z,4.53
2019-05-23T16:47:24.335Z,3.90
2019-05-23T16:49:53.644Z,4.30
2019-05-23T16:52:29.637Z,4.50
2019-05-23T16:55:07.302Z,4.90
2019-05-23T16:57:57.478Z,4.07
2019-05-23T17:00:44.772Z,4.43
2019-05-23T17:03:33.065Z,4.70
2019-05-23T17:06:24.261Z,8.93
2019-05-23T17:09:32.268Z,7.87
2019-05-23T17:12:36.146Z,11.03
2019-05-23T17:15:25.022Z,29.83
2019-05-23T17:18:22.965Z,7.43
2019-05-23T17:21:10.007Z,6.83
2019-05-23T17:24:04.380Z,4.93
2019-05-23T17:27:08.000Z,8.10
2019-05-23T17:29:47.907Z,5.20
2019-05-23T17:32:26.473Z,8.13
2019-05-23T17:34:59.005Z,10.50
2019-05-23T17:37:34.708Z,6.77
2019-05-23T17:40:04.738Z,4.90
2019-05-23T17:42:33.926Z,6.10
2019-05-23T17:45:13.458Z,3.70
2019-05-23T17:47:40.488Z,4.30
2019-05-23T17:50:15.917Z,4.50
2019-05-23T17:52:47.505Z,3.60
2019-05-23T17:55:30.202Z,3.37
2019-05-23T17:57:59.453Z,4.33
2019-05-23T18:00:44.216Z,3.77
2019-05-23T18:03:16.025Z,5.00
2019-05-23T18:05:46.836Z,4.83
2019-05-23T18:08:24.053Z,7.20
2019-05-23T18:10:53.584Z,9.57
2019-05-23T18:13:29.360Z,5.17
2019-05-23T18:15:58.631Z,4.80
2019-05-23T18:18:28.891Z,4.40
2019-05-23T18:21:06.965Z,9.00
2019-05-23T18:23:36.488Z,5.23
2019-05-23T18:26:06.773Z,3.70
2019-05-23T18:28:43.852Z,3.60
2019-05-23T18:31:26.010Z,3.30
2019-05-23T18:34:21.627Z,4.10
2019-05-23T18:36:52.294Z,10.20
2019-05-23T18:39:22.882Z,7.80
2019-05-23T18:42:01.336Z,4.97
2019-05-23T18:44:30.523Z,7.40
2019-05-23T18:47:08.583Z,7.03
2019-05-23T18:49:37.973Z,4.80
2019-05-23T18:52:14.329Z,5.87
2019-05-23T18:54:43.531Z,19.47
2019-05-23T18:57:26.281Z,3.80
2019-05-23T18:59:55.827Z,3.60
2019-05-23T19:02:25.872Z,3.20
2019-05-23T19:05:03.211Z,5.00
2019-05-23T19:07:33.051Z,9.83
2019-05-23T19:10:10.162Z,7.57
2019-05-23T19:12:39.958Z,3.67
2019-05-23T19:15:09.332Z,4.20
2019-05-23T19:17:46.064Z,8.40
2019-05-23T19:20:15.409Z,5.27
2019-05-23T19:22:52.011Z,9.27
2019-05-23T19:25:21.239Z,6.40
2019-05-23T19:27:50.365Z,3.53
2019-05-23T19:30:27.105Z,5.13
2019-05-23T19:32:56.705Z,6.10
2019-05-23T19:35:51.855Z,4.70
2019-05-23T19:38:25.489Z,5.27
2019-05-23T19:41:02.181Z,8.60
2019-05-23T19:43:31.569Z,6.80
2019-05-23T19:46:01.428Z,6.50
2019-05-23T19:48:39.975Z,6.83
2019-05-23T19:51:10.593Z,5.27
2019-05-23T19:53:40.829Z,7.67
2019-05-23T19:56:23.804Z,6.07
2019-05-23T19:58:53.472Z,10.03
2019-05-23T20:01:32.154Z,9.30
2019-05-23T20:04:01.804Z,9.87
2019-05-23T20:06:38.305Z,11.33
2019-05-23T20:09:10.997Z,15.40
2019-05-23T20:11:54.252Z,17.20
2019-05-23T20:14:18.074Z,14.63
2019-05-23T20:16:53.699Z,18.53
2019-05-23T20:19:23.269Z,13.37
2019-05-23T20:21:54.605Z,21.43
2019-05-23T20:24:30.587Z,35.70
2019-05-23T20:27:18.824Z,41.77
2019-05-23T20:29:54.451Z,14.23
2019-05-23T20:32:30.823Z,12.03
2019-05-23T20:35:07.376Z,9.40
2019-05-23T20:37:37.486Z,4.50
2019-05-23T20:40:07.395Z,3.70
2019-05-23T20:42:43.197Z,6.30
2019-05-23T20:45:12.772Z,7.50
2019-05-23T20:47:49.106Z,6.17
2019-05-23T20:50:18.365Z,5.03
2019-05-23T20:53:02.142Z,4.50
2019-05-23T20:55:33.568Z,4.70
2019-05-23T20:58:02.857Z,5.13
2019-05-23T21:01:16.845Z,5.87
2019-05-23T21:03:47.180Z,6.23
2019-05-23T21:06:16.349Z,4.53
2019-05-23T21:08:52.918Z,5.27
2019-05-23T21:11:22.422Z,4.03
2019-05-23T21:13:51.616Z,4.50
2019-05-23T21:16:27.120Z,4.77
2019-05-23T21:18:56.339Z,4.77
2019-05-23T21:21:25.466Z,4.07
2019-05-23T21:24:00.948Z,4.67
2019-05-23T21:26:49.351Z,4.40
2019-05-23T21:29:26.013Z,5.00
2019-05-23T21:32:02.242Z,4.13
2019-05-23T21:34:37.988Z,3.53
2019-05-23T21:37:07.244Z,4.20
2019-05-23T21:39:36.471Z,4.03
2019-05-23T21:42:46.730Z,3.70
2019-05-23T21:45:03.015Z,4.00
2019-05-23T21:47:32.260Z,3.70
2019-05-23T21:50:08.401Z,4.10
2019-05-23T21:52:44.524Z,4.63
2019-05-23T21:55:23.796Z,5.17
2019-05-23T21:57:53.006Z,4.37
2019-05-23T22:00:47.831Z,4.53
2019-05-23T22:03:17.667Z,4.67
2019-05-23T22:05:53.346Z,3.67
2019-05-23T22:08:22.516Z,3.87
2019-05-23T22:10:58.182Z,4.37
2019-05-23T22:13:27.363Z,4.43
2019-05-23T22:15:58.664Z,4.20
2019-05-23T22:18:34.896Z,3.50
2019-05-23T22:21:04.047Z,3.77
2019-05-23T22:23:40.302Z,3.60
2019-05-23T22:26:09.478Z,3.40
2019-05-23T22:28:38.689Z,3.60
2019-05-23T22:31:15.884Z,4.20
2019-05-23T22:33:58.237Z,3.67
2019-05-23T22:36:33.663Z,3.87
2019-05-23T22:39:02.982Z,3.47
2019-05-23T22:41:32.971Z,3.77
2019-05-23T22:44:09.751Z,3.80
2019-05-23T22:46:39.070Z,3.33
2019-05-23T22:49:14.909Z,4.03
2019-05-23T22:51:50.185Z,3.70
2019-05-23T22:54:26.329Z,3.67
2019-05-23T22:56:55.536Z,3.60
2019-05-23T22:59:25.760Z,3.80
2019-05-23T23:02:01.438Z,3.47
2019-05-23T23:04:30.580Z,3.40
2019-05-23T23:06:59.789Z,3.67
2019-05-23T23:09:35.066Z,3.70
2019-05-23T23:12:04.290Z,3.60
2019-05-23T23:14:42.590Z,3.50
2019-05-23T23:17:11.826Z,3.50
2019-05-23T23:19:41.250Z,4.63
2019-05-23T23:22:55.421Z,5.87
2019-05-23T23:25:24.674Z,3.93
2019-05-23T23:28:00.255Z,3.70
2019-05-23T23:30:32.521Z,3.00
2019-05-23T23:33:15.393Z,3.77
2019-05-23T23:35:50.857Z,3.13
2019-05-23T23:38:26.890Z,4.07
2019-05-23T23:40:56.118Z,4.90
2019-05-23T23:43:25.354Z,5.47
2019-05-23T23:46:18.607Z,4.33
2019-05-23T23:49:05.653Z,6.13
2019-05-23T23:51:58.733Z,5.30
2019-05-23T23:54:52.862Z,4.40
2019-05-23T23:57:47.162Z,4.70
